Time;durP1;ratioP1;P1;durP2;ratioP2;P2;SDS_P1;SDS_P2;PMS_P1;PMS_P2;Temp;Humidity;BMP_temperature;BMP_pressure;BME280_temperature;BME280_humidity;BME280_pressure;Samples;Min_cycle;Max_cycle;Signal;HPM_P1;HPM_P2
2022/10/02 00:02:39;;;;;;;0.35;0.10;;;;;;;11.79;63.93;100369.22;4899991;28;97724;-65
2022/10/02 00:05:17;;;;;;;0.82;0.10;;;;;;;11.78;63.93;100367.56;4934858;28;98326;-65
2022/10/02 00:08:04;;;;;;;3.20;0.10;;;;;;;11.76;63.89;100367.06;4899140;28;97523;-67
2022/10/02 00:11:12;;;;;;;0.88;0.10;;;;;;;11.71;63.95;100377.84;4932193;28;97457;-65
2022/10/02 00:13:58;;;;;;;0.57;0.10;;;;;;;11.73;63.80;100375.69;4923410;28;97967;-65
2022/10/02 00:16:38;;;;;;;3.22;0.20;;;;;;;11.70;63.76;100381.66;4889592;28;97826;-67
2022/10/02 00:19:04;;;;;;;0.30;0.10;;;;;;;11.71;63.88;100380.56;4915056;28;97888;-66
2022/10/02 00:22:01;;;;;;;1.83;0.10;;;;;;;11.68;63.82;100381.94;4901852;28;100824;-68
2022/10/02 00:25:01;;;;;;;1.35;0.20;;;;;;;11.66;63.81;100391.38;4939272;28;126008;-65
2022/10/02 00:28:13;;;;;;;1.52;0.10;;;;;;;11.62;63.78;100399.22;4905410;28;97349;-68
2022/10/02 00:31:33;;;;;;;0.55;0.10;;;;;;;11.60;63.86;100401.41;4916603;28;97914;-68
2022/10/02 00:34:30;;;;;;;0.50;0.10;;;;;;;11.59;64.19;100407.88;4919449;28;97932;-68
2022/10/02 00:37:50;;;;;;;2.03;0.20;;;;;;;11.54;63.69;100408.69;4929089;28;102619;-68
2022/10/02 00:40:40;;;;;;;0.60;0.20;;;;;;;11.52;64.16;100410.06;4928248;28;97743;-68
2022/10/02 00:43:23;;;;;;;0.52;0.20;;;;;;;11.52;64.25;100416.28;4919798;28;98094;-65
2022/10/02 00:46:01;;;;;;;4.10;0.30;;;;;;;11.52;64.08;100418.19;4928555;28;97744;-65
2022/10/02 00:48:57;;;;;;;1.95;0.10;;;;;;;11.51;64.06;100414.66;4942949;28;97912;-68
2022/10/02 00:51:49;;;;;;;1.50;0.20;;;;;;;11.49;64.14;100413.31;4933915;28;97759;-65
2022/10/02 00:55:03;;;;;;;0.63;0.20;;;;;;;11.44;64.02;100418.75;4935210;28;97799;-65
2022/10/02 00:57:59;;;;;;;0.68;0.20;;;;;;;11.46;64.38;100422.75;4904452;28;97790;-65
2022/10/02 01:00:25;;;;;;;4.97;0.30;;;;;;;11.43;64.52;100419.81;4903779;28;97783;-68
2022/10/02 01:03:22;;;;;;;1.27;0.30;;;;;;;11.44;64.62;100426.84;4880769;28;97720;-68
2022/10/02 01:05:49;;;;;;;1.58;0.10;;;;;;;11.43;64.23;100425.19;4928131;28;97967;-68
2022/10/02 01:08:15;;;;;;;1.63;0.30;;;;;;;11.40;64.48;100421.19;4891288;28;97909;-65
2022/10/02 01:10:41;;;;;;;1.02;0.20;;;;;;;11.41;64.63;100428.19;4917328;28;97704;-67
2022/10/02 01:13:08;;;;;;;1.15;0.20;;;;;;;11.41;64.34;100425.47;4901643;28;97616;-68
2022/10/02 01:15:46;;;;;;;2.63;0.20;;;;;;;11.40;64.25;100423.88;4899271;28;99258;-68
2022/10/02 01:18:13;;;;;;;2.15;0.20;;;;;;;11.40;64.68;100429.28;4900084;28;97708;-65
2022/10/02 01:20:43;;;;;;;0.88;0.30;;;;;;;11.40;64.71;100433.88;4897309;28;97931;-68
2022/10/02 01:23:30;;;;;;;1.65;0.10;;;;;;;11.38;64.55;100436.81;4898935;28;97759;-68
2022/10/02 01:25:57;;;;;;;1.08;0.10;;;;;;;11.38;64.70;100442.22;4932010;28;97931;-65
2022/10/02 01:28:24;;;;;;;1.88;0.20;;;;;;;11.37;64.64;100447.91;4930183;28;97525;-68
2022/10/02 01:30:55;;;;;;;2.33;0.20;;;;;;;11.36;64.83;100452.50;4885169;28;97710;-67
2022/10/02 01:33:21;;;;;;;0.68;0.10;;;;;;;11.36;64.77;100451.66;4897056;28;99701;-65
2022/10/02 01:35:47;;;;;;;1.98;0.17;;;;;;;11.33;64.66;100453.03;4902915;28;97593;-65
2022/10/02 01:38:17;;;;;;;3.25;0.30;;;;;;;11.33;64.48;100447.63;4881926;28;98160;-65
2022/10/02 01:40:43;;;;;;;1.35;0.20;;;;;;;11.33;64.68;100452.22;4891651;28;99629;-65
2022/10/02 01:43:19;;;;;;;1.02;0.17;;;;;;;11.31;64.46;100455.19;4915290;28;97533;-65
2022/10/02 01:46:49;;;;;;;3.50;0.30;;;;;;;11.22;64.46;100454.13;4901781;28;98126;-65
2022/10/02 01:49:45;;;;;;;1.33;0.20;;;;;;;11.19;64.50;100452.75;4885788;28;97658;-65
2022/10/02 01:52:26;;;;;;;2.53;0.20;;;;;;;11.18;64.48;100459.25;4934147;28;98092;-65
2022/10/02 01:55:16;;;;;;;0.88;0.10;;;;;;;11.17;64.51;100467.63;4902508;28;114170;-65
2022/10/02 01:57:46;;;;;;;1.35;0.20;;;;;;;11.14;64.57;100477.06;4942412;28;98124;-68
2022/10/02 02:00:18;;;;;;;1.67;0.20;;;;;;;11.14;64.75;100473.56;4940667;28;97889;-65
2022/10/02 02:03:21;;;;;;;0.65;0.10;;;;;;;11.08;64.34;100478.13;4911647;28;98045;-65
2022/10/02 02:06:01;;;;;;;1.55;0.20;;;;;;;11.11;64.65;100479.47;4900947;28;101269;-65
2022/10/02 02:08:57;;;;;;;1.50;0.30;;;;;;;11.09;64.74;100476.25;4930012;28;97557;-68
2022/10/02 02:11:24;;;;;;;0.50;0.10;;;;;;;11.07;64.85;100473.81;4898617;28;98890;-67
2022/10/02 02:14:13;;;;;;;1.13;0.10;;;;;;;11.03;64.46;100478.94;4886484;28;129062;-68
2022/10/02 02:16:45;;;;;;;0.88;0.20;;;;;;;11.05;64.98;100476.00;4908543;28;97787;-68
2022/10/02 02:19:43;;;;;;;1.33;0.23;;;;;;;11.02;64.34;100482.72;4924903;28;97646;-65
2022/10/02 02:22:22;;;;;;;2.30;0.20;;;;;;;11.04;64.72;100480.56;4921776;28;98133;-68
2022/10/02 02:25:11;;;;;;;2.47;0.25;;;;;;;11.04;64.87;100491.38;4915280;28;97971;-64
2022/10/02 02:27:45;;;;;;;1.98;0.17;;;;;;;11.04;64.83;100487.84;4895488;28;97723;-68
2022/10/02 02:30:12;;;;;;;1.85;0.30;;;;;;;11.04;64.89;100496.75;4896765;28;97787;-65
2022/10/02 02:32:45;;;;;;;1.10;0.20;;;;;;;11.02;64.65;100492.72;4898929;28;97481;-68
2022/10/02 02:35:37;;;;;;;2.92;0.30;;;;;;;11.01;64.82;100500.00;4901322;28;97864;-65
2022/10/02 02:38:10;;;;;;;2.47;0.20;;;;;;;11.03;65.19;100497.00;4883767;28;98205;-65
2022/10/02 02:40:39;;;;;;;2.55;0.20;;;;;;;11.02;65.07;100490.00;4900876;28;103855;-68
2022/10/02 02:43:21;;;;;;;1.70;0.20;;;;;;;11.02;64.91;100498.09;4915134;28;97650;-67
2022/10/02 02:45:53;;;;;;;0.93;0.10;;;;;;;11.01;65.16;100497.28;4907293;28;97631;-65
2022/10/02 02:48:22;;;;;;;0.53;0.10;;;;;;;11.00;64.76;100500.25;4909284;28;97697;-65
2022/10/02 02:50:59;;;;;;;3.10;0.30;;;;;;;10.97;64.98;100507.00;4910385;28;97579;-65
2022/10/02 02:53:45;;;;;;;1.95;0.20;;;;;;;10.97;64.66;100503.50;4889549;28;97068;-67
2022/10/02 02:56:14;;;;;;;0.77;0.10;;;;;;;10.97;64.94;100508.91;4926643;28;97960;-65
2022/10/02 02:59:08;;;;;;;0.90;0.10;;;;;;;10.95;64.83;100503.75;4915474;28;100756;-67
2022/10/02 03:01:36;;;;;;;5.38;0.25;;;;;;;10.93;65.14;100500.53;4908639;28;97565;-68
2022/10/02 03:04:02;;;;;;;1.42;0.30;;;;;;;10.91;64.69;100504.56;4891128;28;98165;-65
2022/10/02 03:06:36;;;;;;;3.28;0.40;;;;;;;10.94;64.76;100512.13;4896551;28;97967;-68
2022/10/02 03:09:06;;;;;;;1.00;0.10;;;;;;;10.90;65.29;100517.25;4888445;28;97759;-68
2022/10/02 03:12:00;;;;;;;1.23;0.20;;;;;;;10.87;65.02;100514.25;4904208;28;98000;-65
2022/10/02 03:14:49;;;;;;;2.33;0.20;;;;;;;10.85;64.79;100513.75;4917126;28;98016;-65
2022/10/02 03:17:43;;;;;;;3.25;0.40;;;;;;;10.82;65.01;100512.38;4898099;28;97836;-68
2022/10/02 03:20:20;;;;;;;1.95;0.20;;;;;;;10.82;65.32;100521.28;4921730;28;97688;-65
2022/10/02 03:23:07;;;;;;;2.95;0.30;;;;;;;10.80;64.87;100518.03;4892080;28;99268;-68
2022/10/02 03:25:45;;;;;;;2.20;0.20;;;;;;;10.79;65.34;100523.69;4916470;28;97729;-67
2022/10/02 03:28:25;;;;;;;1.73;0.20;;;;;;;10.76;65.47;100525.03;4895063;28;97692;-67
2022/10/02 03:30:54;;;;;;;0.50;0.13;;;;;;;10.74;65.37;100519.09;4896722;28;97702;-68
2022/10/02 03:33:20;;;;;;;2.45;0.30;;;;;;;10.75;65.20;100522.59;4906102;28;97530;-65
2022/10/02 03:35:49;;;;;;;1.90;0.20;;;;;;;10.74;65.29;100529.09;4914554;28;97700;-68
2022/10/02 03:38:15;;;;;;;1.95;0.20;;;;;;;10.73;65.97;100522.09;4880457;28;97685;-68
2022/10/02 03:40:41;;;;;;;1.60;0.30;;;;;;;10.72;64.92;100521.25;4912109;28;99628;-65
2022/10/02 03:43:16;;;;;;;1.33;0.20;;;;;;;10.69;65.32;100523.66;4889834;28;113321;-68
2022/10/02 03:45:45;;;;;;;1.85;0.30;;;;;;;10.69;65.64;100516.41;4870330;28;97588;-68
2022/10/02 03:48:11;;;;;;;3.05;0.20;;;;;;;10.69;65.28;100523.66;4894321;28;97670;-65
2022/10/02 03:50:37;;;;;;;1.13;0.30;;;;;;;10.68;65.32;100522.03;4913590;28;97573;-67
2022/10/02 03:53:20;;;;;;;0.63;0.20;;;;;;;10.67;65.17;100520.44;4895446;28;97888;-67
2022/10/02 03:56:05;;;;;;;2.20;0.35;;;;;;;10.66;65.31;100526.91;4898378;28;97382;-65
2022/10/02 03:58:36;;;;;;;1.38;0.10;;;;;;;10.64;65.37;100534.44;4890377;28;99551;-67
2022/10/02 04:01:30;;;;;;;1.45;0.20;;;;;;;10.64;65.12;100529.03;4897216;28;97813;-65
2022/10/02 04:04:13;;;;;;;1.25;0.38;;;;;;;10.61;65.44;100529.56;4901223;28;97996;-65
2022/10/02 04:06:47;;;;;;;1.05;0.13;;;;;;;10.61;65.47;100519.63;4910101;28;97958;-65
2022/10/02 04:09:54;;;;;;;3.65;0.20;;;;;;;10.59;65.27;100520.97;4896312;28;97705;-68
2022/10/02 04:12:36;;;;;;;1.55;0.32;;;;;;;10.59;65.21;100526.34;4909477;28;98144;-65
2022/10/02 04:15:29;;;;;;;0.98;0.22;;;;;;;10.56;64.79;100539.25;4900865;28;97562;-68
2022/10/02 04:18:06;;;;;;;2.65;0.20;;;;;;;10.59;65.46;100546.03;4881567;28;98094;-65
2022/10/02 04:20:43;;;;;;;3.20;0.40;;;;;;;10.60;65.34;100547.63;4897712;28;97993;-65
2022/10/02 04:23:34;;;;;;;1.85;0.30;;;;;;;10.60;65.17;100541.44;4899962;28;97618;-68
2022/10/02 04:26:16;;;;;;;1.13;0.25;;;;;;;10.59;65.26;100537.94;4921162;28;97767;-65
2022/10/02 04:28:48;;;;;;;1.13;0.20;;;;;;;10.59;65.67;100537.13;4891207;28;97648;-65
2022/10/02 04:31:20;;;;;;;1.65;0.20;;;;;;;10.64;65.45;100542.53;4904734;28;97549;-68
2022/10/02 04:33:47;;;;;;;1.77;0.30;;;;;;;10.63;65.40;100538.22;4883869;28;98001;-65
2022/10/02 04:36:30;;;;;;;1.25;0.20;;;;;;;10.64;65.53;100535.25;4878298;28;125554;-65
2022/10/02 04:39:23;;;;;;;3.00;0.30;;;;;;;10.65;65.30;100534.19;4915820;28;97577;-67
2022/10/02 04:42:24;;;;;;;1.27;0.20;;;;;;;10.66;65.32;100532.31;4923051;28;100321;-65
2022/10/02 04:45:25;;;;;;;1.27;0.20;;;;;;;10.67;64.99;100528.53;4912739;28;97637;-65
2022/10/02 04:48:14;;;;;;;1.60;0.40;;;;;;;10.72;65.67;100526.63;4904739;28;97681;-67
2022/10/02 04:51:00;;;;;;;3.55;0.30;;;;;;;10.82;65.33;100528.56;4948222;28;98268;-69
2022/10/02 04:54:03;;;;;;;4.22;0.43;;;;;;;10.89;65.20;100531.81;4935807;28;97669;-68
2022/10/02 04:57:25;;;;;;;4.30;0.47;;;;;;;10.97;65.42;100522.38;4918938;28;97819;-65
2022/10/02 05:00:14;;;;;;;1.08;0.30;;;;;;;11.03;65.44;100524.00;4941520;28;97992;-65
2022/10/02 05:03:08;;;;;;;4.20;0.20;;;;;;;11.09;64.83;100535.59;4896905;28;104434;-65
2022/10/02 05:06:12;;;;;;;1.35;0.25;;;;;;;11.14;65.27;100551.78;4932410;28;97901;-68
2022/10/02 05:08:51;;;;;;;4.20;0.20;;;;;;;11.17;65.34;100554.75;4896703;28;114400;-67
2022/10/02 05:12:01;;;;;;;1.15;0.20;;;;;;;11.23;65.16;100555.56;4932134;28;98323;-65
2022/10/02 05:15:34;;;;;;;1.10;0.20;;;;;;;11.28;65.23;100560.97;4927793;28;97442;-65
2022/10/02 05:18:18;;;;;;;1.60;0.30;;;;;;;11.31;65.15;100553.13;4894731;28;97715;-65
2022/10/02 05:20:54;;;;;;;4.13;0.45;;;;;;;11.36;65.02;100559.59;4935681;28;98126;-68
2022/10/02 05:23:35;;;;;;;0.35;0.10;;;;;;;11.39;64.96;100559.88;4938880;28;97539;-65
2022/10/02 05:26:47;;;;;;;6.20;0.30;;;;;;;11.43;64.77;100568.25;4895720;28;97619;-68
2022/10/02 05:29:39;;;;;;;1.47;0.20;;;;;;;11.44;64.62;100568.00;4918087;28;97919;-65
2022/10/02 05:32:23;;;;;;;1.55;0.20;;;;;;;11.48;65.01;100566.38;4902305;28;97883;-65
2022/10/02 05:35:33;;;;;;;3.53;0.43;;;;;;;11.50;64.52;100572.28;4906828;28;98026;-68
2022/10/02 05:38:37;;;;;;;3.88;0.40;;;;;;;11.56;64.68;100567.72;4889576;28;97710;-65
2022/10/02 05:41:18;;;;;;;2.10;0.28;;;;;;;11.61;64.69;100572.31;4922316;28;97938;-68
2022/10/02 05:44:09;;;;;;;0.40;0.20;;;;;;;11.63;64.49;100570.97;4891253;28;97938;-68
2022/10/02 05:46:42;;;;;;;0.98;0.20;;;;;;;11.70;65.05;100576.88;4891242;28;99243;-65
2022/10/02 05:49:17;;;;;;;3.17;0.43;;;;;;;11.75;64.60;100568.78;4899566;28;97809;-65
2022/10/02 05:51:54;;;;;;;1.45;0.32;;;;;;;11.80;64.62;100570.66;4903994;28;100372;-65
2022/10/02 05:54:36;;;;;;;2.90;0.30;;;;;;;11.83;64.47;100580.09;4886904;28;98225;-65
2022/10/02 05:57:10;;;;;;;5.18;0.28;;;;;;;11.87;64.46;100573.09;4918493;28;97917;-65
2022/10/02 06:00:08;;;;;;;3.28;0.30;;;;;;;11.89;64.34;100569.03;4916582;28;98127;-65
2022/10/02 06:02:51;;;;;;;2.08;0.20;;;;;;;11.89;64.26;100573.66;4922520;28;97928;-65
2022/10/02 06:05:41;;;;;;;1.10;0.35;;;;;;;11.97;64.25;100568.47;4913476;28;98411;-65
2022/10/02 06:08:11;;;;;;;3.92;0.20;;;;;;;12.07;64.27;100569.56;4925063;28;99700;-65
2022/10/02 06:10:49;;;;;;;2.60;0.30;;;;;;;12.16;64.14;100571.41;4895688;28;97616;-65
2022/10/02 06:13:48;;;;;;;2.10;0.40;;;;;;;12.22;63.95;100570.31;4877237;28;98012;-65
2022/10/02 06:16:38;;;;;;;2.05;0.43;;;;;;;12.33;63.75;100565.66;4921563;28;97848;-65
2022/10/02 06:19:15;;;;;;;1.58;0.20;;;;;;;12.41;63.89;100559.69;4896377;28;112880;-65
2022/10/02 06:21:52;;;;;;;3.13;0.25;;;;;;;12.50;63.66;100571.56;4891857;28;97593;-65
2022/10/02 06:24:49;;;;;;;1.17;0.32;;;;;;;12.57;63.46;100573.13;4895204;28;97841;-65
2022/10/02 06:27:23;;;;;;;3.00;0.20;;;;;;;12.62;63.47;100571.25;4911994;28;98066;-65
2022/10/02 06:29:56;;;;;;;2.63;0.20;;;;;;;12.63;63.54;100575.56;4913103;28;115648;-65
2022/10/02 06:32:54;;;;;;;1.38;0.30;;;;;;;12.69;63.44;100579.84;4917355;28;97408;-65
2022/10/02 06:36:02;;;;;;;2.63;0.20;;;;;;;12.74;63.35;100573.59;4929326;28;99613;-65
2022/10/02 06:38:59;;;;;;;3.25;0.50;;;;;;;12.77;63.43;100581.97;4899198;28;97769;-65
2022/10/02 06:42:06;;;;;;;2.70;0.40;;;;;;;12.71;63.39;100572.25;4926961;28;97851;-65
2022/10/02 06:44:58;;;;;;;1.50;0.30;;;;;;;12.68;63.57;100572.00;4933720;28;97638;-65
2022/10/02 06:47:53;;;;;;;1.50;0.30;;;;;;;12.69;63.50;100579.03;4910242;28;100046;-65
2022/10/02 06:50:54;;;;;;;1.58;0.25;;;;;;;12.71;63.42;100574.16;4917811;28;97687;-67
2022/10/02 06:53:46;;;;;;;1.20;0.15;;;;;;;12.74;63.35;100560.09;4943033;28;97401;-68
2022/10/02 06:56:21;;;;;;;3.85;0.40;;;;;;;12.81;63.15;100565.16;4920685;28;97805;-68
2022/10/02 06:59:33;;;;;;;2.88;0.50;;;;;;;12.83;63.12;100558.41;4945254;28;97623;-68
2022/10/02 07:02:46;;;;;;;8.63;5.03;;;;;;;12.89;63.25;100562.69;4925930;28;98972;-68
2022/10/02 07:05:52;;;;;;;1.83;0.60;;;;;;;12.95;63.10;100549.94;4925591;28;99352;-68
2022/10/02 07:08:46;;;;;;;2.20;0.60;;;;;;;13.03;62.76;100546.63;4898083;28;97904;-68
2022/10/02 07:11:31;;;;;;;2.65;0.40;;;;;;;13.10;62.87;100551.75;4916008;28;98202;-68
2022/10/02 07:14:27;;;;;;;1.67;0.40;;;;;;;13.15;62.97;100557.91;4914471;28;97645;-69
2022/10/02 07:17:31;;;;;;;2.30;0.30;;;;;;;13.24;62.70;100545.44;4904585;28;97701;-68
2022/10/02 07:20:17;;;;;;;3.63;0.40;;;;;;;13.33;62.58;100544.81;4882167;28;98506;-68
2022/10/02 07:23:18;;;;;;;4.00;0.50;;;;;;;13.43;62.61;100558.25;4899095;28;98092;-68
2022/10/02 07:26:16;;;;;;;6.07;0.50;;;;;;;13.54;62.47;100559.78;4929124;28;98103;-68
2022/10/02 07:29:23;;;;;;;1.85;0.50;;;;;;;13.66;61.82;100557.50;4889040;28;97872;-68
2022/10/02 07:32:12;;;;;;;1.98;0.40;;;;;;;13.80;61.94;100563.09;4918140;28;97881;-65
2022/10/02 07:34:57;;;;;;;4.28;0.50;;;;;;;13.91;61.77;100561.06;4921970;28;98284;-65
2022/10/02 07:37:39;;;;;;;5.10;0.60;;;;;;;14.04;61.65;100552.25;4938434;28;97927;-65
2022/10/02 07:40:37;;;;;;;1.58;0.40;;;;;;;14.22;61.41;100553.41;4915946;28;97790;-68
2022/10/02 07:43:30;;;;;;;1.58;0.40;;;;;;;14.44;60.94;100553.66;4943720;28;97757;-68
2022/10/02 07:46:24;;;;;;;12.20;5.68;;;;;;;14.63;60.78;100553.72;4930412;28;98088;-68
2022/10/02 07:49:12;;;;;;;1.77;0.82;;;;;;;14.85;60.52;100555.84;4947618;28;97803;-65
2022/10/02 07:51:46;;;;;;;3.78;0.47;;;;;;;14.96;60.26;100553.81;4901886;28;97576;-65
2022/10/02 07:54:38;;;;;;;3.00;0.50;;;;;;;15.09;60.27;100563.09;4917545;28;97888;-65
2022/10/02 07:57:51;;;;;;;1.73;0.30;;;;;;;15.22;60.18;100555.03;4894383;28;98103;-65
2022/10/02 08:00:19;;;;;;;2.53;0.50;;;;;;;15.57;59.45;100566.41;4913687;28;98132;-65
2022/10/02 08:03:22;;;;;;;1.77;0.50;;;;;;;15.78;59.10;100574.22;4900213;28;98245;-65
2022/10/02 08:05:56;;;;;;;2.28;0.40;;;;;;;16.33;57.90;100574.25;4940657;28;98728;-65
2022/10/02 08:08:40;;;;;;;2.35;0.43;;;;;;;16.60;57.94;100570.72;4903003;28;97828;-65
2022/10/02 08:11:34;;;;;;;1.48;0.30;;;;;;;17.06;57.23;100570.53;4926513;28;98696;-65
2022/10/02 08:14:14;;;;;;;3.42;0.40;;;;;;;17.66;56.11;100555.72;4892082;28;97686;-68
2022/10/02 08:16:54;;;;;;;2.30;0.52;;;;;;;18.36;55.27;100554.91;4929685;28;97626;-68
2022/10/02 08:19:38;;;;;;;2.15;0.32;;;;;;;19.52;53.96;100558.97;4913647;28;98318;-69
2022/10/02 08:22:20;;;;;;;2.80;0.35;;;;;;;22.87;48.75;100550.38;4901600;28;98309;-69
2022/10/02 08:24:53;;;;;;;1.98;0.30;;;;;;;27.88;41.79;100579.06;4929666;28;97943;-69
2022/10/02 08:27:47;;;;;;;1.58;0.40;;;;;;;30.09;39.86;100587.59;4899001;28;99071;-70
2022/10/02 08:30:18;;;;;;;2.30;0.30;;;;;;;34.34;36.29;100583.09;4905540;28;97966;-70
2022/10/02 08:32:48;;;;;;;0.95;0.20;;;;;;;34.04;37.22;100567.28;4886874;28;98084;-70
2022/10/02 08:35:22;;;;;;;1.92;0.30;;;;;;;37.51;33.29;100561.72;4884766;28;100634;-70
2022/10/02 08:38:39;;;;;;;3.20;3.00;;;;;;;40.62;32.36;100559.06;4896228;28;98045;-70
2022/10/02 08:41:48;;;;;;;124.38;118.03;;;;;;;42.75;30.80;100554.59;4882526;28;98120;-70
2022/10/02 08:44:48;;;;;;;126.30;120.63;;;;;;;41.34;31.74;100528.25;4932111;28;97692;-70
2022/10/02 08:47:39;;;;;;;1.92;0.35;;;;;;;35.81;37.28;100512.78;4921863;28;97771;-70
2022/10/02 08:50:44;;;;;;;;;;;;;;;32.67;42.45;100511.75;4933352;28;97697;-69
2022/10/02 08:54:05;;;;;;;1.58;0.10;;;;;;;34.63;37.35;100523.84;4930505;28;98999;-69
2022/10/02 08:57:33;;;;;;;2.63;0.40;;;;;;;34.91;36.54;100516.84;4914262;28;98205;-69
2022/10/02 09:00:46;;;;;;;1.38;0.40;;;;;;;32.36;39.13;100501.75;4904216;28;98200;-69
2022/10/02 09:04:02;;;;;;;0.90;0.20;;;;;;;29.37;42.06;100501.84;4930201;28;97657;-66
2022/10/02 09:06:54;;;;;;;1.73;0.28;;;;;;;27.41;43.46;100508.59;4927870;28;99616;-66
2022/10/02 09:09:50;;;;;;;0.88;0.20;;;;;;;25.90;43.77;100499.53;4910315;28;97623;-68
2022/10/02 09:12:59;;;;;;;1.65;0.40;;;;;;;24.72;45.47;100510.31;4918744;28;97640;-68
2022/10/02 09:15:53;;;;;;;1.73;0.22;;;;;;;23.54;46.75;100507.50;4932801;28;97952;-65
2022/10/02 09:18:55;;;;;;;2.08;0.20;;;;;;;22.70;47.14;100502.00;4901810;28;111988;-65
2022/10/02 09:21:36;;;;;;;2.40;0.20;;;;;;;22.01;47.84;100512.06;4903850;28;97989;-65
2022/10/02 09:24:45;;;;;;;3.78;0.20;;;;;;;21.45;48.46;100506.25;4950153;28;98787;-65
2022/10/02 09:27:23;;;;;;;3.55;0.57;;;;;;;20.84;48.85;100504.09;4924100;28;97527;-65
2022/10/02 09:30:26;;;;;;;2.13;0.38;;;;;;;20.60;48.90;100510.25;4945725;28;97554;-65
2022/10/02 09:33:07;;;;;;;1.25;0.20;;;;;;;20.13;49.32;100515.81;4939240;28;97272;-65
2022/10/02 09:36:11;;;;;;;1.90;0.22;;;;;;;19.85;49.46;100505.34;4929583;28;97708;-65
2022/10/02 09:38:56;;;;;;;1.65;0.15;;;;;;;19.81;49.37;100506.31;4903770;28;97628;-65
2022/10/02 09:41:50;;;;;;;2.55;0.90;;;;;;;19.93;48.85;100511.91;4945440;28;98158;-65
2022/10/02 09:44:44;;;;;;;4.05;0.20;;;;;;;20.59;47.82;100493.00;4945551;28;99686;-65
2022/10/02 09:47:19;;;;;;;1.65;0.45;;;;;;;20.86;47.48;100495.53;4935467;28;97559;-65
2022/10/02 09:50:30;;;;;;;1.67;0.20;;;;;;;20.59;48.24;100500.41;4927988;28;97958;-65
2022/10/02 09:53:32;;;;;;;3.10;0.40;;;;;;;20.91;47.75;100492.59;4898051;28;98530;-65
2022/10/02 09:56:28;;;;;;;1.80;0.35;;;;;;;20.71;48.00;100495.00;4898769;28;97584;-65
2022/10/02 09:59:25;;;;;;;1.23;0.32;;;;;;;20.87;47.74;100484.25;4911558;28;97762;-65
2022/10/02 10:02:10;;;;;;;0.98;0.20;;;;;;;21.74;46.16;100475.91;4928118;28;97889;-66
2022/10/02 10:05:19;;;;;;;1.67;0.30;;;;;;;22.04;46.31;100483.91;4947559;28;98778;-65
2022/10/02 10:08:13;;;;;;;1.80;0.30;;;;;;;22.29;46.12;100476.50;4908801;28;97722;-68
2022/10/02 10:10:59;;;;;;;3.25;0.30;;;;;;;22.58;45.94;100469.09;4907521;28;98951;-69
2022/10/02 10:13:50;;;;;;;1.08;0.20;;;;;;;22.59;46.36;100465.19;4897255;28;97610;-69
2022/10/02 10:16:53;;;;;;;5.37;0.30;;;;;;;21.96;47.06;100480.13;4911146;28;98504;-68
2022/10/02 10:19:44;;;;;;;;;;;;;;;21.44;48.13;100469.81;4926839;28;100111;-69
2022/10/02 10:23:05;;;;;;;2.75;0.60;;;;;;;21.08;48.21;100460.34;4943370;28;97523;-69
2022/10/02 10:26:09;;;;;;;5.07;0.45;;;;;;;20.69;48.40;100460.88;4913262;28;99153;-69
2022/10/02 10:29:08;;;;;;;1.48;0.30;;;;;;;20.18;49.24;100454.63;4941573;28;97686;-69
2022/10/02 10:32:17;;;;;;;1.10;0.22;;;;;;;20.02;49.02;100465.34;4891276;28;100767;-69
2022/10/02 10:35:12;;;;;;;2.33;0.30;;;;;;;21.02;47.22;100458.94;4930086;28;97980;-66
2022/10/02 10:42:23;;;;;;;1.07;0.10;;;;;;;23.12;45.32;100454.94;4897068;28;98000;-66
2022/10/02 10:45:31;;;;;;;2.38;0.32;;;;;;;23.21;45.56;100455.56;4915024;28;97629;-69
2022/10/02 10:49:09;;;;;;;0.65;0.10;;;;;;;24.39;43.87;100455.66;4925497;28;99509;-66
2022/10/02 10:52:50;;;;;;;0.63;0.10;;;;;;;25.51;43.14;100454.69;4936198;28;97934;-65
2022/10/02 10:56:03;;;;;;;1.92;0.40;;;;;;;24.05;45.48;100471.00;4921082;28;97935;-69
2022/10/02 10:59:23;;;;;;;3.03;0.20;;;;;;;24.84;43.58;100465.25;4941783;28;97819;-66
2022/10/02 11:02:07;;;;;;;1.10;0.10;;;;;;;24.62;43.38;100459.31;4850605;28;98040;-69
2022/10/02 11:04:51;;;;;;;0.85;0.20;;;;;;;25.12;43.03;100443.78;4942794;28;97562;-69
2022/10/02 11:07:36;;;;;;;0.80;0.10;;;;;;;23.94;44.31;100446.78;4918870;28;98135;-66
2022/10/02 11:10:41;;;;;;;1.70;0.30;;;;;;;25.77;42.08;100451.16;4943005;28;97904;-66
2022/10/02 11:13:33;;;;;;;1.15;0.20;;;;;;;26.00;41.69;100450.34;4898773;28;97710;-68
2022/10/02 11:16:28;;;;;;;0.70;0.10;;;;;;;25.83;41.77;100455.25;4929061;28;97649;-68
2022/10/02 11:19:27;;;;;;;1.42;0.20;;;;;;;24.61;43.90;100454.97;4930289;28;97737;-66
2022/10/02 11:22:24;;;;;;;0.22;0.08;;;;;;;24.33;43.81;100449.63;4927492;28;98119;-66
2022/10/02 11:25:24;;;;;;;2.70;0.20;;;;;;;23.44;44.93;100444.75;4943370;28;99058;-66
2022/10/02 11:28:21;;;;;;;1.50;0.20;;;;;;;22.79;45.90;100439.47;4922259;28;97996;-68
2022/10/02 11:31:07;;;;;;;0.77;0.10;;;;;;;22.67;45.27;100434.81;4942200;28;98148;-69
2022/10/02 11:33:52;;;;;;;3.15;0.15;;;;;;;24.02;43.28;100430.44;4945784;28;97985;-69
2022/10/02 11:36:56;;;;;;;2.70;0.20;;;;;;;23.97;43.88;100424.06;4927628;28;99113;-68
2022/10/02 11:39:57;;;;;;;0.90;0.20;;;;;;;24.02;43.75;100414.72;4920514;28;97571;-69
2022/10/02 11:42:36;;;;;;;0.75;0.10;;;;;;;25.77;41.01;100409.75;4907233;28;98007;-69
2022/10/02 11:46:06;;;;;;;1.00;0.10;;;;;;;26.89;40.07;100424.69;4874425;28;98266;-69
2022/10/02 11:49:07;;;;;;;0.95;0.30;;;;;;;27.08;40.23;100422.91;4889561;28;99588;-68
2022/10/02 11:52:16;;;;;;;0.95;0.10;;;;;;;25.14;42.94;100424.88;4913209;28;97777;-66
2022/10/02 11:55:07;;;;;;;2.85;0.10;;;;;;;24.10;44.25;100416.47;4932289;28;98319;-66
2022/10/02 11:57:55;;;;;;;1.10;0.20;;;;;;;23.89;43.80;100414.03;4929900;28;97764;-68
2022/10/02 12:00:39;;;;;;;0.90;0.10;;;;;;;23.01;44.82;100405.16;4921314;28;97679;-69
2022/10/02 12:03:21;;;;;;;0.65;0.10;;;;;;;23.67;43.68;100401.75;4892443;28;100101;-66
2022/10/02 12:06:28;;;;;;;0.47;0.10;;;;;;;23.74;43.27;100401.13;4907673;28;97938;-69
2022/10/02 12:09:09;;;;;;;1.17;0.13;;;;;;;23.44;44.00;100406.25;4939372;28;98086;-68
2022/10/02 12:12:24;;;;;;;1.02;0.10;;;;;;;23.20;43.79;100398.97;4922168;28;97560;-68
2022/10/02 12:15:21;;;;;;;0.70;0.15;;;;;;;23.52;43.41;100402.53;4908270;28;98040;-69
2022/10/02 12:18:25;;;;;;;2.10;0.10;;;;;;;23.74;43.57;100403.88;4913790;28;98025;-66
2022/10/02 12:27:41;;;;;;;2.90;0.32;;;;;;;22.85;44.04;100404.31;4928946;28;97457;-66
2022/10/02 12:30:21;;;;;;;0.52;0.10;;;;;;;22.85;44.39;100401.56;4938855;28;99681;-69
2022/10/02 12:33:20;;;;;;;1.23;0.15;;;;;;;22.43;45.04;100401.97;4900986;28;98185;-69
2022/10/02 12:36:04;;;;;;;2.17;0.13;;;;;;;22.36;44.32;100394.34;4896328;28;99207;-69
2022/10/02 12:39:03;;;;;;;0.50;0.10;;;;;;;22.38;44.58;100399.47;4932284;28;97772;-68
2022/10/02 12:42:14;;;;;;;0.43;0.10;;;;;;;22.27;44.85;100380.72;4925198;28;100128;-68
2022/10/02 12:45:26;;;;;;;1.65;0.10;;;;;;;21.93;45.40;100383.97;4907620;28;99806;-69
2022/10/02 12:48:26;;;;;;;1.27;0.10;;;;;;;21.77;45.47;100384.72;4922922;28;97778;-66
2022/10/02 12:51:32;;;;;;;0.82;0.10;;;;;;;21.44;45.85;100381.28;4901549;28;98213;-66
2022/10/02 12:54:39;;;;;;;0.60;0.10;;;;;;;21.02;46.41;100400.59;4934318;28;99864;-66
2022/10/02 13:00:17;;;;;;;1.17;0.10;;;;;;;20.50;46.50;100407.38;4943662;28;97920;-68
2022/10/02 13:03:38;;;;;;;2.70;0.20;;;;;;;20.17;46.78;100401.84;4899518;28;97968;-69
2022/10/02 13:06:20;;;;;;;0.60;0.13;;;;;;;19.80;46.82;100406.25;4882892;28;100150;-65
2022/10/02 13:09:30;;;;;;;0.50;0.10;;;;;;;19.49;47.57;100398.34;4920322;28;99697;-68
2022/10/02 13:12:04;;;;;;;0.32;0.10;;;;;;;19.25;47.57;100405.19;4920665;28;97459;-65
2022/10/02 13:14:52;;;;;;;0.40;0.10;;;;;;;19.13;47.58;100407.78;4926448;28;97935;-69
2022/10/02 13:17:27;;;;;;;0.90;0.10;;;;;;;19.13;47.53;100399.59;4923042;28;98265;-68
2022/10/02 13:20:21;;;;;;;1.58;0.10;;;;;;;19.26;47.22;100403.28;4904094;28;99269;-66
2022/10/02 13:23:11;;;;;;;1.45;0.17;;;;;;;19.26;47.45;100400.53;4923249;28;97632;-68